createdAt,value
2018-03-29T00:00:38.827Z,42.43
2018-03-29T00:03:07.101Z,36.47
2018-03-29T00:05:36.195Z,39.73
2018-03-29T00:08:04.456Z,44.27
2018-03-29T00:10:32.719Z,35.73
2018-03-29T00:13:01.034Z,39.23
2018-03-29T00:15:30.476Z,37.60
2018-03-29T00:18:02.483Z,40.10
2018-03-29T00:20:30.715Z,40.73
2018-03-29T00:23:00.532Z,41.37
2018-03-29T00:25:32.462Z,51.27
2018-03-29T00:28:03.542Z,54.20
2018-03-29T00:30:32.627Z,36.27
2018-03-29T00:33:00.866Z,48.33
2018-03-29T00:35:29.227Z,46.63
2018-03-29T00:37:57.473Z,50.57
2018-03-29T00:40:25.791Z,43.90
2018-03-29T00:42:54.075Z,50.23
2018-03-29T00:45:22.397Z,49.57
2018-03-29T00:47:51.593Z,44.30
2018-03-29T00:50:20.005Z,50.80
2018-03-29T00:52:49.436Z,43.53
2018-03-29T00:55:17.719Z,73.17
2018-03-29T00:57:47.220Z,54.47
2018-03-29T01:00:15.509Z,56.57
2018-03-29T01:02:43.772Z,43.33
2018-03-29T01:05:15.754Z,50.93
2018-03-29T01:07:44.100Z,55.10
2018-03-29T01:10:12.494Z,56.07
2018-03-29T01:12:41.037Z,59.30
2018-03-29T01:15:10.582Z,46.57
2018-03-29T01:17:38.813Z,47.63
2018-03-29T01:20:08.307Z,63.57
2018-03-29T01:22:37.326Z,52.33
2018-03-29T01:25:05.578Z,50.97
2018-03-29T01:27:33.838Z,51.70
2018-03-29T01:30:02.419Z,41.90
2018-03-29T01:32:38.397Z,40.87
2018-03-29T01:35:06.666Z,41.50
2018-03-29T01:37:37.857Z,50.73
2018-03-29T01:40:07.443Z,51.30
2018-03-29T01:42:35.708Z,50.30
2018-03-29T01:45:04.009Z,60.73
2018-03-29T01:47:32.276Z,74.37
2018-03-29T01:50:03.372Z,52.47
2018-03-29T01:52:31.669Z,50.00
2018-03-29T01:54:59.993Z,61.37
2018-03-29T01:57:28.250Z,64.10
2018-03-29T01:59:56.626Z,43.53
2018-03-29T02:02:24.988Z,57.80
2018-03-29T02:04:53.238Z,51.33
2018-03-29T02:07:21.585Z,71.37
2018-03-29T02:09:51.447Z,43.07
2018-03-29T02:12:19.844Z,53.97
2018-03-29T02:14:49.280Z,48.83
2018-03-29T02:17:18.319Z,40.87
2018-03-29T02:19:46.551Z,56.70
2018-03-29T02:22:14.839Z,41.57
2018-03-29T02:24:44.656Z,55.53
2018-03-29T02:27:12.917Z,36.03
2018-03-29T02:29:42.237Z,67.15
2018-03-29T02:32:11.248Z,39.30
2018-03-29T02:34:39.531Z,46.67
2018-03-29T02:37:07.779Z,51.27
2018-03-29T02:39:36.900Z,41.97
2018-03-29T02:42:05.186Z,42.07
2018-03-29T02:47:09.691Z,45.70
2018-03-29T02:49:38.728Z,77.43
2018-03-29T02:52:07.054Z,48.80
2018-03-29T02:54:35.336Z,45.10
2018-03-29T02:57:07.311Z,58.80
2018-03-29T02:59:35.586Z,41.40
2018-03-29T03:02:04.648Z,50.33
2018-03-29T03:04:32.874Z,55.43
2018-03-29T03:07:02.094Z,91.37
2018-03-29T03:09:30.366Z,44.87
2018-03-29T03:11:58.658Z,56.83
2018-03-29T03:14:28.038Z,50.43
2018-03-29T03:16:56.272Z,52.17
2018-03-29T03:19:25.333Z,44.90
2018-03-29T03:21:53.603Z,66.67
2018-03-29T03:24:21.859Z,83.73
2018-03-29T03:26:50.266Z,62.20
2018-03-29T03:29:20.246Z,47.67
2018-03-29T03:31:48.482Z,70.77
2018-03-29T03:34:17.735Z,48.47
2018-03-29T03:36:46.045Z,72.57
2018-03-29T03:39:15.135Z,49.63
2018-03-29T03:41:43.490Z,39.03
2018-03-29T03:44:12.637Z,68.23
2018-03-29T03:46:42.094Z,73.17
2018-03-29T03:49:10.371Z,45.57
2018-03-29T03:51:39.818Z,44.27
2018-03-29T03:54:08.854Z,70.80
2018-03-29T03:56:37.992Z,47.70
2018-03-29T03:59:06.236Z,39.83
2018-03-29T04:01:34.506Z,47.27
2018-03-29T04:04:02.839Z,35.67
2018-03-29T04:06:31.886Z,32.03
2018-03-29T04:09:00.130Z,39.00
2018-03-29T04:11:28.425Z,63.97
2018-03-29T04:13:57.589Z,50.67
2018-03-29T04:16:25.958Z,34.57
2018-03-29T04:18:56.161Z,39.10
2018-03-29T04:21:24.427Z,31.77
2018-03-29T04:23:52.702Z,44.30
2018-03-29T04:26:20.982Z,42.33
2018-03-29T04:28:50.012Z,41.70
2018-03-29T04:31:18.313Z,45.60
2018-03-29T04:33:46.564Z,37.37
2018-03-29T04:36:15.621Z,34.72
2018-03-29T04:38:43.959Z,30.73
2018-03-29T04:41:12.206Z,40.50
2018-03-29T04:43:40.461Z,42.20
2018-03-29T04:46:08.762Z,32.40
2018-03-29T04:48:39.102Z,37.17
2018-03-29T04:51:07.513Z,41.00
2018-03-29T04:53:35.904Z,36.87
2018-03-29T04:56:04.216Z,43.87
2018-03-29T04:58:32.589Z,34.43
2018-03-29T05:01:01.671Z,31.57
2018-03-29T05:03:29.954Z,38.90
2018-03-29T05:05:58.995Z,39.13
2018-03-29T05:08:28.528Z,34.97
2018-03-29T05:10:56.808Z,46.57
2018-03-29T05:13:25.087Z,53.43
2018-03-29T05:15:53.374Z,44.50
2018-03-29T05:18:21.665Z,46.40
2018-03-29T05:20:50.741Z,53.63
2018-03-29T05:23:19.801Z,45.13
2018-03-29T05:25:48.966Z,45.73
2018-03-29T05:28:17.244Z,44.13
2018-03-29T05:30:45.549Z,52.70
2018-03-29T05:33:14.053Z,40.53
2018-03-29T05:35:42.301Z,53.73
2018-03-29T05:38:10.576Z,43.47
2018-03-29T05:40:38.863Z,45.00
2018-03-29T05:43:07.176Z,48.93
2018-03-29T05:45:36.220Z,40.23
2018-03-29T05:48:04.567Z,36.80
2018-03-29T05:50:33.569Z,40.13
2018-03-29T05:53:01.869Z,36.20
2018-03-29T05:55:30.151Z,34.67
2018-03-29T05:57:58.392Z,34.67
2018-03-29T06:00:26.676Z,39.87
2018-03-29T06:02:55.397Z,29.87
2018-03-29T06:05:24.821Z,34.27
2018-03-29T06:07:53.890Z,28.57
2018-03-29T06:10:22.178Z,32.87
2018-03-29T06:12:50.564Z,34.53
2018-03-29T06:15:19.627Z,34.77
2018-03-29T06:17:53.485Z,33.10
2018-03-29T06:20:22.670Z,44.93
2018-03-29T06:22:52.272Z,43.07
2018-03-29T06:25:20.597Z,45.37
2018-03-29T06:27:48.962Z,41.77
2018-03-29T06:30:17.277Z,42.10
2018-03-29T06:32:45.557Z,42.67
2018-03-29T06:35:13.858Z,40.67
2018-03-29T06:37:42.143Z,41.43
2018-03-29T06:40:10.425Z,38.47
2018-03-29T06:42:38.725Z,42.63
2018-03-29T06:45:07.786Z,36.97
2018-03-29T06:47:36.214Z,36.10
2018-03-29T06:50:05.772Z,33.20
2018-03-29T06:52:35.441Z,35.17
2018-03-29T06:55:03.791Z,31.43
2018-03-29T06:57:33.631Z,32.37
2018-03-29T07:00:01.896Z,32.50
2018-03-29T07:02:32.073Z,30.67
2018-03-29T07:05:01.939Z,32.50
2018-03-29T07:07:30.231Z,31.70
2018-03-29T07:10:02.248Z,27.63
2018-03-29T07:12:33.009Z,28.83
2018-03-29T07:15:01.356Z,28.77
2018-03-29T07:17:31.581Z,27.33
2018-03-29T07:20:00.595Z,27.60
2018-03-29T07:22:29.270Z,28.73
2018-03-29T07:24:57.602Z,28.20
2018-03-29T07:27:25.914Z,28.80
2018-03-29T07:29:54.276Z,29.00
2018-03-29T07:32:23.319Z,30.33
2018-03-29T07:34:52.426Z,30.47
2018-03-29T07:37:20.694Z,31.00
2018-03-29T07:39:49.137Z,30.00
2018-03-29T07:42:20.410Z,30.87
2018-03-29T07:44:48.776Z,30.13
2018-03-29T07:47:17.104Z,28.93
2018-03-29T07:49:45.350Z,28.90
2018-03-29T07:52:13.676Z,28.67
2018-03-29T07:54:42.790Z,28.57
2018-03-29T07:57:11.816Z,29.30
2018-03-29T07:59:40.224Z,27.60
2018-03-29T08:02:08.497Z,28.07
2018-03-29T08:04:36.757Z,26.73
2018-03-29T08:07:05.198Z,26.70
2018-03-29T08:09:34.258Z,27.33
2018-03-29T08:12:03.319Z,28.30
2018-03-29T08:14:31.846Z,25.90
2018-03-29T08:17:00.895Z,25.37
2018-03-29T08:19:29.287Z,25.17
2018-03-29T08:21:59.251Z,27.17
2018-03-29T08:24:27.538Z,24.43
2018-03-29T08:26:55.808Z,25.37
2018-03-29T08:29:24.127Z,24.27
2018-03-29T08:31:52.638Z,23.83
2018-03-29T08:34:20.945Z,24.53
2018-03-29T08:36:49.320Z,26.07
2018-03-29T08:39:18.453Z,23.97
2018-03-29T08:41:47.866Z,23.27
2018-03-29T08:44:16.133Z,25.83
2018-03-29T08:46:44.448Z,22.73
2018-03-29T08:49:13.502Z,25.50
2018-03-29T08:51:41.829Z,24.13
2018-03-29T08:54:10.854Z,24.47
2018-03-29T08:56:39.092Z,23.80
2018-03-29T08:59:08.183Z,25.13
2018-03-29T09:01:37.200Z,23.13
2018-03-29T09:04:07.032Z,24.53
2018-03-29T09:06:35.290Z,23.50
2018-03-29T09:09:03.596Z,22.00
2018-03-29T09:11:31.879Z,22.90
2018-03-29T09:14:00.184Z,24.30
2018-03-29T09:16:28.463Z,22.93
2018-03-29T09:18:57.518Z,23.13
2018-03-29T09:21:25.803Z,23.53
2018-03-29T09:23:54.102Z,22.20
2018-03-29T09:26:22.507Z,22.80
2018-03-29T09:28:50.800Z,22.67
2018-03-29T09:31:19.100Z,22.67
2018-03-29T09:33:47.378Z,22.87
2018-03-29T09:36:15.647Z,25.47
2018-03-29T09:38:43.909Z,25.63
2018-03-29T09:41:12.184Z,24.10
2018-03-29T09:43:40.479Z,26.73
2018-03-29T09:46:08.859Z,24.87
2018-03-29T09:48:37.144Z,26.90
2018-03-29T09:51:05.445Z,28.17
2018-03-29T09:53:33.723Z,27.03
2018-03-29T09:56:02.839Z,27.90
2018-03-29T09:58:31.079Z,28.63
2018-03-29T10:01:04.993Z,28.77
2018-03-29T10:03:43.164Z,28.80
2018-03-29T10:06:17.036Z,27.93
2018-03-29T10:08:46.059Z,24.57
2018-03-29T10:11:14.330Z,25.73
2018-03-29T10:13:42.631Z,26.27
2018-03-29T10:16:10.957Z,23.67
2018-03-29T10:18:40.027Z,22.77
2018-03-29T10:21:08.409Z,22.17
2018-03-29T10:23:37.517Z,22.83
2018-03-29T10:26:05.890Z,23.23
2018-03-29T10:28:35.689Z,23.47
2018-03-29T10:31:04.019Z,21.47
2018-03-29T10:33:32.377Z,24.20
2018-03-29T10:36:01.534Z,24.13
2018-03-29T10:38:31.415Z,23.20
2018-03-29T10:40:59.805Z,23.67
2018-03-29T10:43:28.109Z,24.77
2018-03-29T10:45:56.443Z,23.03
2018-03-29T10:48:24.785Z,24.23
2018-03-29T10:50:54.325Z,23.77
2018-03-29T10:53:22.770Z,24.97
2018-03-29T10:55:51.831Z,26.30
2018-03-29T10:58:20.090Z,24.53
2018-03-29T11:00:48.380Z,24.17
2018-03-29T11:03:16.737Z,26.33
2018-03-29T11:05:44.985Z,27.67
2018-03-29T11:08:14.902Z,26.23
2018-03-29T11:10:43.975Z,27.03
2018-03-29T11:13:13.138Z,26.40
2018-03-29T11:15:41.509Z,26.20
2018-03-29T11:18:09.797Z,26.80
2018-03-29T11:20:39.339Z,27.73
2018-03-29T11:23:07.616Z,26.50
2018-03-29T11:25:36.645Z,24.47
2018-03-29T11:28:04.919Z,25.07
2018-03-29T11:30:33.186Z,27.37
2018-03-29T11:33:02.214Z,28.03
2018-03-29T11:35:30.495Z,25.57
2018-03-29T11:37:58.782Z,25.90
2018-03-29T11:40:28.285Z,25.73
2018-03-29T11:42:56.550Z,26.70
2018-03-29T11:45:28.549Z,25.20
2018-03-29T11:47:57.643Z,26.40
2018-03-29T11:50:25.970Z,25.53
2018-03-29T11:52:54.275Z,24.67
2018-03-29T11:55:22.571Z,26.30
2018-03-29T11:57:50.956Z,26.90
2018-03-29T12:00:19.234Z,26.07
2018-03-29T12:02:47.523Z,25.20
2018-03-29T12:05:17.897Z,26.37
2018-03-29T12:07:46.177Z,26.63
2018-03-29T12:10:14.742Z,25.33
2018-03-29T12:12:44.202Z,26.57
2018-03-29T12:15:12.496Z,25.97
2018-03-29T12:17:42.286Z,27.47
2018-03-29T12:20:11.288Z,27.20
2018-03-29T12:22:40.338Z,28.77
2018-03-29T12:25:08.784Z,26.00
2018-03-29T12:27:37.144Z,25.73
2018-03-29T12:30:08.256Z,25.37
2018-03-29T12:32:36.650Z,26.57
2018-03-29T12:35:04.901Z,26.00
2018-03-29T12:37:34.307Z,26.57
2018-03-29T12:40:02.675Z,24.70
2018-03-29T12:42:31.131Z,25.00
2018-03-29T12:44:59.482Z,25.40
2018-03-29T12:47:27.694Z,25.07
2018-03-29T12:49:55.978Z,25.23
2018-03-29T12:52:24.242Z,27.10
2018-03-29T12:55:04.331Z,22.77
2018-03-29T12:57:44.575Z,22.73
2018-03-29T13:00:12.861Z,24.03
2018-03-29T13:02:41.119Z,24.60
2018-03-29T13:05:09.432Z,23.03
2018-03-29T13:07:38.517Z,21.42
2018-03-29T13:10:07.662Z,23.53
2018-03-29T13:12:37.113Z,22.53
2018-03-29T13:15:05.506Z,21.23
2018-03-29T13:17:34.565Z,21.83
2018-03-29T13:20:02.857Z,21.63
2018-03-29T13:22:32.399Z,22.00
2018-03-29T13:25:01.452Z,23.00
2018-03-29T13:27:29.719Z,22.83
2018-03-29T13:29:59.269Z,22.10
2018-03-29T13:32:28.284Z,22.13
2018-03-29T13:34:56.514Z,22.13
2018-03-29T13:37:24.885Z,21.17
2018-03-29T13:39:53.146Z,21.00
2018-03-29T13:42:21.536Z,20.40
2018-03-29T13:44:49.798Z,20.00
2018-03-29T13:47:18.054Z,19.93
2018-03-29T13:49:46.381Z,21.77
2018-03-29T13:52:15.454Z,20.92
2018-03-29T13:54:43.723Z,23.07
2018-03-29T13:57:13.232Z,22.33
2018-03-29T13:59:41.627Z,22.13
2018-03-29T14:02:11.054Z,21.97
2018-03-29T14:04:40.078Z,21.13
2018-03-29T14:07:08.506Z,19.40
2018-03-29T14:09:36.777Z,20.20
2018-03-29T14:12:05.029Z,19.17
2018-03-29T14:14:35.073Z,20.00
2018-03-29T14:17:06.310Z,20.27
2018-03-29T14:19:34.610Z,21.40
2018-03-29T14:22:04.604Z,20.83
2018-03-29T14:24:32.918Z,21.83
2018-03-29T14:27:01.972Z,23.63
2018-03-29T14:29:30.242Z,22.63
2018-03-29T14:31:58.527Z,23.30
2018-03-29T14:34:26.895Z,22.43
2018-03-29T14:36:55.287Z,23.90
2018-03-29T14:39:23.630Z,24.00
2018-03-29T14:41:51.978Z,24.70
2018-03-29T14:44:21.030Z,23.07
2018-03-29T14:46:49.428Z,22.83
2018-03-29T14:49:17.674Z,22.93
2018-03-29T14:51:45.962Z,22.62
2018-03-29T14:54:14.342Z,22.77
2018-03-29T14:56:43.562Z,21.47
2018-03-29T14:59:12.604Z,22.43
2018-03-29T15:01:40.891Z,22.33
2018-03-29T15:04:09.220Z,22.30
2018-03-29T15:06:38.271Z,23.07
2018-03-29T15:09:06.634Z,22.53
2018-03-29T15:11:34.929Z,22.17
2018-03-29T15:14:03.414Z,23.30
2018-03-29T15:16:32.640Z,20.10
2018-03-29T15:19:02.190Z,19.20
2018-03-29T15:21:30.520Z,23.03
2018-03-29T15:24:00.712Z,22.50
2018-03-29T15:26:31.813Z,21.97
2018-03-29T15:29:00.074Z,21.37
2018-03-29T15:31:29.090Z,20.40
2018-03-29T15:33:57.392Z,19.40
2018-03-29T15:36:25.644Z,20.73
2018-03-29T15:38:54.028Z,20.07
2018-03-29T15:41:25.314Z,19.40
2018-03-29T15:43:53.622Z,19.83
2018-03-29T15:46:21.911Z,20.30
2018-03-29T15:48:50.189Z,19.87
2018-03-29T15:51:18.447Z,20.03
2018-03-29T15:53:46.709Z,20.27
2018-03-29T15:56:16.099Z,19.87
2018-03-29T15:58:44.403Z,18.43
2018-03-29T16:01:12.681Z,19.53
2018-03-29T16:03:40.965Z,19.20
2018-03-29T16:06:09.352Z,19.50
2018-03-29T16:08:38.590Z,18.93
2018-03-29T16:11:07.009Z,19.13
2018-03-29T16:13:35.318Z,19.50
2018-03-29T16:16:03.569Z,21.27
2018-03-29T16:18:31.909Z,19.43
2018-03-29T16:21:00.161Z,21.00
2018-03-29T16:23:28.462Z,21.58
2018-03-29T16:25:56.819Z,21.17
2018-03-29T16:28:25.155Z,23.00
2018-03-29T16:30:53.437Z,21.07
2018-03-29T16:33:21.881Z,22.33
2018-03-29T16:35:52.217Z,20.80
2018-03-29T16:38:21.975Z,21.53
2018-03-29T16:40:50.313Z,20.73
2018-03-29T16:43:19.375Z,19.80
2018-03-29T16:45:48.788Z,20.57
2018-03-29T16:48:17.063Z,21.43
2018-03-29T16:50:45.391Z,23.37
2018-03-29T16:53:13.873Z,24.70
2018-03-29T16:55:43.473Z,23.97
2018-03-29T16:58:11.804Z,22.40
2018-03-29T17:00:40.170Z,20.80
2018-03-29T17:03:09.398Z,16.40
2018-03-29T17:05:38.469Z,16.97
2018-03-29T17:08:07.619Z,16.73
2018-03-29T17:10:36.420Z,15.90
2018-03-29T17:13:04.771Z,15.57
2018-03-29T17:15:33.078Z,16.00
2018-03-29T17:18:01.484Z,18.47
2018-03-29T17:20:29.758Z,19.53
2018-03-29T17:22:59.676Z,16.73
2018-03-29T17:25:28.113Z,17.87
2018-03-29T17:27:58.145Z,15.70
2018-03-29T17:30:28.213Z,14.47
2018-03-29T17:32:57.300Z,15.43
2018-03-29T17:35:25.666Z,14.37
2018-03-29T17:37:55.511Z,13.30
2018-03-29T17:40:23.873Z,14.23
2018-03-29T17:42:52.975Z,13.57
2018-03-29T17:45:22.207Z,12.75
2018-03-29T17:47:50.535Z,10.73
2018-03-29T17:50:18.826Z,12.07
2018-03-29T17:52:47.896Z,10.95
2018-03-29T17:55:17.156Z,10.63
2018-03-29T17:57:45.429Z,10.97
2018-03-29T18:00:13.744Z,10.63
2018-03-29T18:02:42.782Z,10.43
2018-03-29T18:05:11.123Z,11.30
2018-03-29T18:07:39.459Z,11.60
2018-03-29T18:10:07.755Z,11.73
2018-03-29T18:12:39.867Z,11.70
2018-03-29T18:15:08.993Z,10.63
2018-03-29T18:17:37.354Z,10.93
2018-03-29T18:20:06.415Z,11.90
2018-03-29T18:22:34.762Z,12.50
2018-03-29T18:25:03.063Z,17.73
2018-03-29T18:27:31.334Z,18.93
2018-03-29T18:29:59.636Z,17.53
2018-03-29T18:32:27.887Z,26.80
2018-03-29T18:34:56.161Z,16.52
2018-03-29T18:37:24.446Z,16.37
2018-03-29T18:39:52.756Z,14.83
2018-03-29T18:42:21.826Z,13.20
2018-03-29T18:44:50.118Z,13.73
2018-03-29T18:47:18.523Z,12.90
2018-03-29T18:49:46.920Z,17.43
2018-03-29T18:52:15.258Z,19.77
2018-03-29T18:54:44.284Z,15.87
2018-03-29T18:57:12.568Z,16.47
2018-03-29T18:59:40.873Z,16.43
2018-03-29T19:02:09.543Z,17.93
2018-03-29T19:04:41.643Z,17.20
2018-03-29T19:07:11.640Z,17.70
2018-03-29T19:09:39.930Z,16.00
2018-03-29T19:12:08.195Z,16.27
2018-03-29T19:14:36.496Z,14.33
2018-03-29T19:17:06.395Z,19.13
2018-03-29T19:19:34.742Z,13.40
2018-03-29T19:22:03.041Z,15.37
2018-03-29T19:24:32.048Z,15.60
2018-03-29T19:27:00.833Z,14.90
2018-03-29T19:29:29.128Z,17.37
2018-03-29T19:31:57.636Z,18.40
2018-03-29T19:34:26.036Z,17.20
2018-03-29T19:36:54.308Z,15.37
2018-03-29T19:39:23.469Z,28.27
2018-03-29T19:41:52.080Z,29.17
2018-03-29T19:44:20.388Z,21.57
2018-03-29T19:46:48.709Z,16.05
2018-03-29T19:49:18.183Z,13.63
2018-03-29T19:51:46.480Z,13.33
2018-03-29T19:54:15.040Z,15.10
2018-03-29T19:56:44.433Z,15.83
2018-03-29T19:59:12.706Z,15.03
2018-03-29T20:01:41.802Z,15.10
2018-03-29T20:04:10.087Z,16.87
2018-03-29T20:06:38.460Z,14.97
2018-03-29T20:09:06.753Z,15.33
2018-03-29T20:11:35.051Z,14.73
2018-03-29T20:14:04.238Z,14.23
2018-03-29T20:16:33.279Z,12.90
2018-03-29T20:19:01.611Z,13.90
2018-03-29T20:21:30.804Z,15.67
2018-03-29T20:24:00.653Z,14.07
2018-03-29T20:26:30.691Z,190.90
2018-03-29T20:28:59.436Z,159.43
2018-03-29T20:31:27.792Z,349.37
2018-03-29T20:33:59.838Z,287.97
2018-03-29T20:36:28.893Z,287.63
2018-03-29T20:38:58.119Z,249.17
2018-03-29T20:41:26.454Z,278.57
2018-03-29T20:43:54.780Z,185.73
2018-03-29T20:46:23.184Z,147.63
2018-03-29T20:48:51.466Z,152.40
2018-03-29T20:51:20.538Z,75.72
2018-03-29T20:53:48.967Z,58.00
2018-03-29T20:56:17.327Z,50.50
2018-03-29T20:58:45.637Z,44.70
2018-03-29T21:01:14.010Z,31.07
2018-03-29T21:03:43.104Z,28.13
2018-03-29T21:06:11.402Z,21.87
2018-03-29T21:08:39.751Z,21.67
2018-03-29T21:11:08.005Z,19.33
2018-03-29T21:13:37.084Z,20.43
2018-03-29T21:16:05.396Z,19.80
2018-03-29T21:18:33.721Z,19.70
2018-03-29T21:21:02.001Z,19.43
2018-03-29T21:23:30.281Z,20.20
2018-03-29T21:25:58.589Z,22.50
2018-03-29T21:28:27.543Z,26.33
2018-03-29T21:30:55.809Z,29.37
2018-03-29T21:33:24.169Z,32.23
2018-03-29T21:35:52.665Z,36.13
2018-03-29T21:38:20.920Z,36.63
2018-03-29T21:40:49.175Z,34.73
2018-03-29T21:43:17.594Z,41.17
2018-03-29T21:45:45.897Z,44.97
2018-03-29T21:48:14.223Z,40.50
2018-03-29T21:50:42.466Z,36.87
2018-03-29T21:53:11.527Z,38.00
2018-03-29T21:55:39.845Z,34.70
2018-03-29T21:58:08.123Z,33.03
2018-03-29T22:00:36.389Z,30.50
2018-03-29T22:03:05.457Z,27.17
2018-03-29T22:05:33.702Z,27.10
2018-03-29T22:08:02.040Z,25.00
2018-03-29T22:10:30.302Z,24.37
2018-03-29T22:12:58.625Z,24.20
2018-03-29T22:15:26.907Z,23.23
2018-03-29T22:17:55.282Z,22.43
2018-03-29T22:20:23.538Z,24.83
2018-03-29T22:22:51.966Z,23.53
2018-03-29T22:25:20.487Z,22.27
2018-03-29T22:27:48.777Z,22.03
2018-03-29T22:30:17.147Z,23.47
2018-03-29T22:32:45.438Z,21.37
2018-03-29T22:35:13.731Z,23.90
2018-03-29T22:37:42.047Z,22.73
2018-03-29T22:40:10.358Z,21.95
2018-03-29T22:42:38.660Z,21.97
2018-03-29T22:45:07.689Z,22.42
2018-03-29T22:47:35.993Z,26.37
2018-03-29T22:50:04.257Z,21.73
2018-03-29T22:52:33.372Z,22.00
2018-03-29T22:55:02.816Z,25.83
2018-03-29T22:57:31.082Z,21.13
2018-03-29T22:59:59.347Z,22.93
2018-03-29T23:02:27.855Z,23.30
2018-03-29T23:04:56.149Z,21.80
2018-03-29T23:07:24.466Z,26.60
2018-03-29T23:09:52.718Z,26.80
2018-03-29T23:12:21.775Z,30.47
2018-03-29T23:14:50.029Z,29.73
2018-03-29T23:17:18.290Z,29.57
2018-03-29T23:19:47.842Z,28.57
2018-03-29T23:22:16.243Z,27.57
2018-03-29T23:24:46.487Z,24.77
2018-03-29T23:27:14.766Z,24.77
2018-03-29T23:29:44.060Z,26.80
2018-03-29T23:32:16.069Z,24.07
2018-03-29T23:34:44.352Z,26.40
2018-03-29T23:37:12.607Z,25.87
2018-03-29T23:39:40.904Z,34.30
2018-03-29T23:42:09.171Z,31.30
2018-03-29T23:44:37.474Z,32.00
2018-03-29T23:47:05.744Z,30.00
2018-03-29T23:49:34.054Z,27.40
2018-03-29T23:52:03.131Z,31.63
2018-03-29T23:54:31.389Z,29.37
2018-03-29T23:56:59.674Z,31.07
2018-03-29T23:59:27.947Z,31.63
